TPC74 EHLE-ENKB
Flight info
| Callsign | TPC74 |
|---|---|
| Flight time | N/A |
| Altitude | 45000 |
| Route | EHGG DCT EDWG DCT ETMN/N0414F430 DCT EDXO DCT EDXW DCT EKVJ/N0422F410 DCT EKTS/N0414F430 DCT ENCN DCT ENZV DCT ENHD/N0421F410 DCT ENSO/N0414F430 DCT VOO DCT ENFL/N0421F410 DCT ENAL |
| Aircraft | PC24/M-SBDGIRWY/LB2 |
Departure
| Time | 2026-04-27 23:56 |
|---|---|
| Airport | Lelystad Airport (EHLE) |
Arrival
| Time | N/A |
|---|---|
| Airport | Kristiansund Airport, Kvernberget (ENKB) |
| Time | Latitude | Longitude | Altitude | Speed | Heading |
|---|---|---|---|---|---|
| 2026-04-27 23:54 | 52.44615 | 5.50585 | -10 ft | 0 kts | 227° |
| 2026-04-27 23:55 | 52.44603 | 5.50564 | -11 ft | 9 kts | 227° |
| 2026-04-27 23:55 | 52.44578 | 5.50446 | -10 ft | 14 kts | 295° |
| 2026-04-27 23:55 | 52.44653 | 5.50324 | -8 ft | 16 kts | 321° |
| 2026-04-27 23:56 | 52.44747 | 5.50421 | -8 ft | 39 kts | 44° |
| 2026-04-27 23:56 | 52.45107 | 5.51072 | -10 ft | 112 kts | 49° |
| 2026-04-27 23:56 | 52.45756 | 5.52239 | 98 ft | 162 kts | 46° |
| 2026-04-27 23:56 | 52.46565 | 5.53637 | 996 ft | 165 kts | 47° |
| 2026-04-27 23:57 | 52.47383 | 5.54994 | 2028 ft | 172 kts | 45° |
| 2026-04-27 23:57 | 52.48266 | 5.56439 | 2936 ft | 186 kts | 45° |
| 2026-04-27 23:57 | 52.49140 | 5.58034 | 4071 ft | 183 kts | 49° |
| 2026-04-27 23:57 | 52.49889 | 5.59624 | 5400 ft | 177 kts | 52° |
| 2026-04-27 23:58 | 52.50656 | 5.61348 | 6250 ft | 197 kts | 52° |
| 2026-04-27 23:58 | 52.51489 | 5.63250 | 7139 ft | 211 kts | 51° |
| 2026-04-27 23:58 | 52.52556 | 5.64991 | 8067 ft | 221 kts | 38° |
| 2026-04-27 23:58 | 52.53802 | 5.66429 | 9288 ft | 216 kts | 25° |
| 2026-04-27 23:59 | 52.55269 | 5.66925 | 10284 ft | 222 kts | 356° |
| 2026-04-27 23:59 | 52.56822 | 5.66804 | 11324 ft | 220 kts | 354° |
| 2026-04-27 23:59 | 52.58321 | 5.66571 | 12511 ft | 216 kts | 350° |
| 2026-04-27 23:59 | 52.59851 | 5.66120 | 13249 ft | 232 kts | 343° |
| 2026-04-28 00:00 | 52.61429 | 5.65515 | 14249 ft | 234 kts | 348° |
| 2026-04-28 00:00 | 52.63080 | 5.65360 | 15142 ft | 241 kts | 358° |
| 2026-04-28 00:00 | 52.64776 | 5.65510 | 15991 ft | 247 kts | 359° |
| 2026-04-28 00:00 | 52.66505 | 5.65626 | 16843 ft | 251 kts | 357° |
| 2026-04-28 00:01 | 52.68270 | 5.65681 | 17682 ft | 256 kts | 356° |
| 2026-04-28 00:01 | 52.70041 | 5.65733 | 18505 ft | 261 kts | 357° |
| 2026-04-28 00:01 | 52.71867 | 5.65796 | 19228 ft | 265 kts | 356° |
| 2026-04-28 00:01 | 52.73724 | 5.65866 | 19977 ft | 267 kts | 356° |
| 2026-04-28 00:02 | 52.75593 | 5.65934 | 20706 ft | 270 kts | 356° |
| 2026-04-28 00:02 | 52.77484 | 5.66003 | 21426 ft | 273 kts | 356° |
| 2026-04-28 00:02 | 52.79392 | 5.66070 | 22138 ft | 276 kts | 356° |
| 2026-04-28 00:02 | 52.81323 | 5.66140 | 22839 ft | 279 kts | 356° |
| 2026-04-28 00:03 | 52.83274 | 5.66210 | 23536 ft | 282 kts | 356° |
| 2026-04-28 00:03 | 52.85247 | 5.66281 | 24163 ft | 285 kts | 356° |
| 2026-04-28 00:03 | 52.87232 | 5.66353 | 24730 ft | 287 kts | 356° |
| 2026-04-28 00:03 | 52.88559 | 5.66402 | 25122 ft | 288 kts | 355° |
| 2026-04-28 00:04 | 52.90577 | 5.66474 | 25685 ft | 291 kts | 355° |
| 2026-04-28 00:04 | 52.94652 | 5.66622 | 26785 ft | 295 kts | 355° |
| 2026-04-28 00:04 | 52.96713 | 5.66695 | 27314 ft | 297 kts | 354° |
| 2026-04-28 00:05 | 52.98789 | 5.66772 | 27832 ft | 300 kts | 354° |
| 2026-04-28 00:05 | 53.00878 | 5.66847 | 28337 ft | 302 kts | 354° |
| 2026-04-28 00:05 | 53.02990 | 5.66924 | 28831 ft | 304 kts | 354° |
| 2026-04-28 00:05 | 53.05116 | 5.67002 | 29311 ft | 306 kts | 354° |
| 2026-04-28 00:06 | 53.07254 | 5.67079 | 29783 ft | 309 kts | 354° |
| 2026-04-28 00:06 | 53.09392 | 5.67155 | 30039 ft | 317 kts | 354° |
| 2026-04-28 00:06 | 53.11653 | 5.67228 | 30045 ft | 332 kts | 354° |
| 2026-04-28 00:06 | 53.13995 | 5.67317 | 30049 ft | 343 kts | 354° |
| 2026-04-28 00:07 | 53.16434 | 5.67406 | 30049 ft | 358 kts | 354° |
| 2026-04-28 00:07 | 53.18972 | 5.67500 | 30045 ft | 371 kts | 355° |
| 2026-04-28 00:07 | 53.21595 | 5.67597 | 30044 ft | 383 kts | 355° |
| 2026-04-28 00:08 | 53.27066 | 5.67800 | 30041 ft | 402 kts | 355° |
| 2026-04-28 00:08 | 53.32748 | 5.68014 | 30039 ft | 411 kts | 355° |
| 2026-04-28 00:09 | 53.38482 | 5.68227 | 30037 ft | 412 kts | 355° |
| 2026-04-28 00:09 | 53.44207 | 5.68439 | 30037 ft | 412 kts | 355° |
| 2026-04-28 00:10 | 53.49932 | 5.68652 | 30039 ft | 411 kts | 355° |
| 2026-04-28 00:10 | 53.54968 | 5.68838 | 30030 ft | 412 kts | 355° |